createdAt,value
2022-12-03T00:00:12.600Z,1001.00
2022-12-03T00:00:19.021Z,1001.00
2022-12-03T00:00:28.403Z,1001.00
2022-12-03T00:00:38.653Z,1001.01
2022-12-03T00:00:48.888Z,1001.00
2022-12-03T00:00:59.142Z,1001.00
2022-12-03T00:01:09.398Z,1001.00
2022-12-03T00:01:19.624Z,1001.00
2022-12-03T00:01:29.888Z,1001.00
2022-12-03T00:01:40.124Z,1001.00
2022-12-03T00:01:50.367Z,1001.00
2022-12-03T00:02:00.823Z,1001.00
2022-12-03T00:02:11.146Z,1001.00
2022-12-03T00:02:21.568Z,1001.00
2022-12-03T00:02:31.754Z,1001.00
2022-12-03T00:02:42.153Z,1000.99
2022-12-03T00:02:52.549Z,1000.99
2022-12-03T00:03:02.989Z,1000.99
2022-12-03T00:03:13.293Z,1000.99
2022-12-03T00:03:23.570Z,1000.99
2022-12-03T00:03:33.878Z,1000.99
2022-12-03T00:03:44.263Z,1000.99
2022-12-03T00:03:54.484Z,1000.99
2022-12-03T00:04:04.801Z,1000.99
2022-12-03T00:04:15.054Z,1000.99
2022-12-03T00:04:25.290Z,1000.99
2022-12-03T00:04:35.536Z,1000.99
2022-12-03T00:04:45.791Z,1000.99
2022-12-03T00:04:56.297Z,1000.99
2022-12-03T00:05:06.322Z,1000.99
2022-12-03T00:05:17.193Z,1000.99
2022-12-03T00:05:26.797Z,1000.98
2022-12-03T00:05:37.046Z,1000.98
2022-12-03T00:05:49.113Z,1000.98
2022-12-03T00:05:57.590Z,1000.99
2022-12-03T00:06:07.835Z,1000.99
2022-12-03T00:06:18.074Z,1000.99
2022-12-03T00:06:33.035Z,1000.99
2022-12-03T00:06:39.746Z,1000.99
2022-12-03T00:06:49.124Z,1000.98
2022-12-03T00:06:59.368Z,1000.98
2022-12-03T00:07:09.616Z,1000.98
2022-12-03T00:07:19.857Z,1000.98
2022-12-03T00:07:30.164Z,1000.98
2022-12-03T00:07:40.393Z,1000.98
2022-12-03T00:07:50.664Z,1000.97
2022-12-03T00:08:00.960Z,1000.98
2022-12-03T00:08:11.291Z,1000.97
2022-12-03T00:08:21.539Z,1000.97
2022-12-03T00:08:31.783Z,1000.98
2022-12-03T00:08:42.031Z,1000.97
2022-12-03T00:08:52.273Z,1000.97
2022-12-03T00:09:02.515Z,1000.97
2022-12-03T00:09:12.768Z,1000.97
2022-12-03T00:09:23.005Z,1000.97
2022-12-03T00:09:33.247Z,1000.97
2022-12-03T00:09:43.496Z,1000.97
2022-12-03T00:09:53.765Z,1000.97
2022-12-03T00:10:04.002Z,1000.96
2022-12-03T00:10:14.249Z,1000.97
2022-12-03T00:10:24.491Z,1000.97
2022-12-03T00:10:34.802Z,1000.97
2022-12-03T00:10:45.002Z,1000.97
2022-12-03T00:10:55.246Z,1000.97
2022-12-03T00:11:05.490Z,1000.96
2022-12-03T00:11:15.743Z,1000.97
2022-12-03T00:11:26.015Z,1000.97
2022-12-03T00:11:36.248Z,1000.97
2022-12-03T00:11:46.471Z,1000.97
2022-12-03T00:11:56.716Z,1000.96
2022-12-03T00:12:06.959Z,1000.96
2022-12-03T00:12:17.203Z,1000.96
2022-12-03T00:12:27.469Z,1000.96
2022-12-03T00:12:37.711Z,1000.96
2022-12-03T00:12:47.952Z,1000.97
2022-12-03T00:12:58.200Z,1000.96
2022-12-03T00:13:08.442Z,1000.96
2022-12-03T00:13:18.690Z,1000.96
2022-12-03T00:13:28.939Z,1000.95
2022-12-03T00:13:39.200Z,1000.95
2022-12-03T00:13:49.447Z,1000.94
2022-12-03T00:13:59.680Z,1000.95
2022-12-03T00:14:09.920Z,1000.95
2022-12-03T00:14:20.170Z,1000.95
2022-12-03T00:14:30.421Z,1000.94
2022-12-03T00:14:44.581Z,1000.95
2022-12-03T00:14:50.945Z,1000.95
2022-12-03T00:15:01.203Z,1000.95
2022-12-03T00:15:11.443Z,1000.95
2022-12-03T00:15:21.698Z,1000.95
2022-12-03T00:15:32.001Z,1000.95
2022-12-03T00:15:42.332Z,1000.95
2022-12-03T00:15:52.642Z,1000.95
2022-12-03T00:16:02.942Z,1000.95
2022-12-03T00:16:13.302Z,1000.95
2022-12-03T00:16:23.632Z,1000.94
2022-12-03T00:16:33.859Z,1000.95
2022-12-03T00:16:44.115Z,1000.95
2022-12-03T00:16:54.369Z,1000.96
2022-12-03T00:17:04.600Z,1000.96
2022-12-03T00:17:14.840Z,1000.95
2022-12-03T00:17:25.089Z,1000.95
2022-12-03T00:17:35.327Z,1000.96
2022-12-03T00:17:45.580Z,1000.96
2022-12-03T00:17:55.856Z,1000.96
2022-12-03T00:18:06.097Z,1000.96
2022-12-03T00:18:16.318Z,1000.96
2022-12-03T00:18:26.565Z,1000.96
2022-12-03T00:18:36.802Z,1000.95
2022-12-03T00:18:47.076Z,1000.95
2022-12-03T00:18:57.292Z,1000.95
2022-12-03T00:19:07.535Z,1000.95
2022-12-03T00:19:17.782Z,1000.95
2022-12-03T00:19:28.023Z,1000.95
2022-12-03T00:19:38.271Z,1000.95
2022-12-03T00:19:48.522Z,1000.95
2022-12-03T00:19:58.796Z,1000.94
2022-12-03T00:20:09.021Z,1000.94
2022-12-03T00:20:19.264Z,1000.94
2022-12-03T00:20:29.509Z,1000.94
2022-12-03T00:20:39.770Z,1000.94
2022-12-03T00:20:50.034Z,1000.94
2022-12-03T00:21:00.247Z,1000.94
2022-12-03T00:21:10.495Z,1000.93
2022-12-03T00:21:20.742Z,1000.93
2022-12-03T00:21:30.986Z,1000.93
2022-12-03T00:21:41.249Z,1000.93
2022-12-03T00:21:51.499Z,1000.93
2022-12-03T00:22:01.730Z,1000.93
2022-12-03T00:22:12.907Z,1000.93
2022-12-03T00:22:22.331Z,1000.93
2022-12-03T00:22:32.586Z,1000.93
2022-12-03T00:22:42.834Z,1000.92
2022-12-03T00:22:53.106Z,1000.93
2022-12-03T00:23:03.324Z,1000.92
2022-12-03T00:23:13.566Z,1000.92
2022-12-03T00:23:23.815Z,1000.92
2022-12-03T00:23:40.180Z,1000.92
2022-12-03T00:23:45.486Z,1000.92
2022-12-03T00:23:54.870Z,1000.93
2022-12-03T00:24:05.107Z,1000.93
2022-12-03T00:24:15.355Z,1000.93
2022-12-03T00:24:25.588Z,1000.93
2022-12-03T00:24:35.832Z,1000.93
2022-12-03T00:24:46.081Z,1000.92
2022-12-03T00:24:56.539Z,1000.93
2022-12-03T00:25:06.629Z,1000.92
2022-12-03T00:25:16.868Z,1000.92
2022-12-03T00:25:27.116Z,1000.92
2022-12-03T00:25:37.367Z,1000.92
2022-12-03T00:25:47.622Z,1000.91
2022-12-03T00:25:57.862Z,1000.91
2022-12-03T00:26:08.101Z,1000.91
2022-12-03T00:26:18.366Z,1000.91
2022-12-03T00:26:28.585Z,1000.90
2022-12-03T00:26:38.831Z,1000.89
2022-12-03T00:26:49.078Z,1000.90
2022-12-03T00:26:59.320Z,1000.90
2022-12-03T00:27:09.581Z,1000.90
2022-12-03T00:27:19.807Z,1000.89
2022-12-03T00:27:30.053Z,1000.88
2022-12-03T00:27:40.300Z,1000.88
2022-12-03T00:27:50.544Z,1000.88
2022-12-03T00:28:00.788Z,1000.88
2022-12-03T00:28:11.050Z,1000.88
2022-12-03T00:28:21.275Z,1000.87
2022-12-03T00:28:31.523Z,1000.87
2022-12-03T00:28:41.785Z,1000.87
2022-12-03T00:28:52.008Z,1000.87
2022-12-03T00:29:02.254Z,1000.86
2022-12-03T00:29:12.499Z,1000.86
2022-12-03T00:29:22.750Z,1000.86
2022-12-03T00:29:32.989Z,1000.86
2022-12-03T00:29:43.236Z,1000.86
2022-12-03T00:29:53.479Z,1000.86
2022-12-03T00:30:03.743Z,1000.86
2022-12-03T00:30:13.999Z,1000.85
2022-12-03T00:30:24.241Z,1000.86
2022-12-03T00:30:34.476Z,1000.86
2022-12-03T00:30:44.838Z,1000.86
2022-12-03T00:30:55.169Z,1000.85
2022-12-03T00:31:05.424Z,1000.85
2022-12-03T00:31:15.728Z,1000.85
2022-12-03T00:31:26.087Z,1000.85
2022-12-03T00:31:36.413Z,1000.84
2022-12-03T00:31:46.644Z,1000.85
2022-12-03T00:31:56.885Z,1000.85
2022-12-03T00:32:07.131Z,1000.84
2022-12-03T00:32:17.388Z,1000.85
2022-12-03T00:32:27.632Z,1000.85
2022-12-03T00:32:37.881Z,1000.84
2022-12-03T00:32:48.122Z,1000.85
2022-12-03T00:32:58.370Z,1000.85
2022-12-03T00:33:08.627Z,1000.84
2022-12-03T00:33:18.880Z,1000.84
2022-12-03T00:33:29.134Z,1000.84
2022-12-03T00:33:39.394Z,1000.84
2022-12-03T00:33:49.631Z,1000.84
2022-12-03T00:33:59.901Z,1000.84
2022-12-03T00:34:10.120Z,1000.84
2022-12-03T00:34:20.374Z,1000.84
2022-12-03T00:34:30.607Z,1000.84
2022-12-03T00:34:40.855Z,1000.84
2022-12-03T00:34:51.301Z,1000.84
2022-12-03T00:35:01.396Z,1000.84
2022-12-03T00:35:11.667Z,1000.85
2022-12-03T00:35:21.908Z,1000.85
2022-12-03T00:35:32.140Z,1000.85
2022-12-03T00:35:42.384Z,1000.85
2022-12-03T00:35:52.628Z,1000.85
2022-12-03T00:36:02.886Z,1000.85
2022-12-03T00:36:13.120Z,1000.85
2022-12-03T00:36:23.367Z,1000.85
2022-12-03T00:36:33.611Z,1000.85
2022-12-03T00:36:43.871Z,1000.85
2022-12-03T00:36:54.122Z,1000.85
2022-12-03T00:37:04.369Z,1000.85
2022-12-03T00:37:14.610Z,1000.85
2022-12-03T00:37:24.852Z,1000.86
2022-12-03T00:37:35.104Z,1000.85
2022-12-03T00:37:45.351Z,1000.85
2022-12-03T00:37:55.592Z,1000.85
2022-12-03T00:38:05.852Z,1000.84
2022-12-03T00:38:16.079Z,1000.85
2022-12-03T00:38:26.323Z,1000.85
2022-12-03T00:38:36.567Z,1000.85
2022-12-03T00:38:46.810Z,1000.84
2022-12-03T00:38:57.048Z,1000.84
2022-12-03T00:39:07.304Z,1000.85
2022-12-03T00:39:17.546Z,1000.85
2022-12-03T00:39:27.787Z,1000.84
2022-12-03T00:39:38.104Z,1000.84
2022-12-03T00:39:48.309Z,1000.84
2022-12-03T00:39:58.552Z,1000.84
2022-12-03T00:40:08.814Z,1000.84
2022-12-03T00:40:19.045Z,1000.85
2022-12-03T00:40:29.296Z,1000.84
2022-12-03T00:40:39.535Z,1000.84
2022-12-03T00:40:49.782Z,1000.84
2022-12-03T00:41:00.028Z,1000.84
2022-12-03T00:41:10.274Z,1000.83
2022-12-03T00:41:20.522Z,1000.84
2022-12-03T00:41:30.759Z,1000.83
2022-12-03T00:41:41.006Z,1000.83
2022-12-03T00:41:51.267Z,1000.83
2022-12-03T00:42:01.487Z,1000.83
2022-12-03T00:42:11.741Z,1000.83
2022-12-03T00:42:21.991Z,1000.83
2022-12-03T00:42:32.314Z,1000.83
2022-12-03T00:42:42.615Z,1000.82
2022-12-03T00:42:52.803Z,1000.82
2022-12-03T00:43:03.044Z,1000.82
2022-12-03T00:43:13.308Z,1000.82
2022-12-03T00:43:23.544Z,1000.82
2022-12-03T00:43:33.790Z,1000.82
2022-12-03T00:43:44.033Z,1000.82
2022-12-03T00:43:54.285Z,1000.82
2022-12-03T00:44:04.523Z,1000.82
2022-12-03T00:44:14.774Z,1000.82
2022-12-03T00:44:25.014Z,1000.82
2022-12-03T00:44:35.278Z,1000.81
2022-12-03T00:44:45.501Z,1000.81
2022-12-03T00:44:55.966Z,1000.80
2022-12-03T00:45:06.075Z,1000.80
2022-12-03T00:45:16.321Z,1000.80
2022-12-03T00:45:26.564Z,1000.80
2022-12-03T00:45:36.806Z,1000.79
2022-12-03T00:45:47.065Z,1000.79
2022-12-03T00:45:57.408Z,1000.79
2022-12-03T00:46:07.709Z,1000.79
2022-12-03T00:46:21.302Z,1000.79
2022-12-03T00:46:28.456Z,1000.79
2022-12-03T00:46:38.804Z,1000.79
2022-12-03T00:46:49.140Z,1000.79
2022-12-03T00:46:59.456Z,1000.78
2022-12-03T00:47:09.894Z,1000.78
2022-12-03T00:47:19.937Z,1000.78
2022-12-03T00:47:30.187Z,1000.77
2022-12-03T00:47:40.429Z,1000.77
2022-12-03T00:47:50.671Z,1000.76
2022-12-03T00:48:00.921Z,1000.76
2022-12-03T00:48:11.182Z,1000.76
2022-12-03T00:48:21.409Z,1000.75
2022-12-03T00:48:31.649Z,1000.75
2022-12-03T00:48:41.920Z,1000.75
2022-12-03T00:48:52.153Z,1000.74
2022-12-03T00:49:02.397Z,1000.74
2022-12-03T00:49:12.629Z,1000.74
2022-12-03T00:49:22.873Z,1000.74
2022-12-03T00:49:33.116Z,1000.74
2022-12-03T00:49:43.376Z,1000.74
2022-12-03T00:49:53.605Z,1000.74
2022-12-03T00:50:03.851Z,1000.74
2022-12-03T00:50:14.131Z,1000.74
2022-12-03T00:50:24.356Z,1000.74
2022-12-03T00:50:34.602Z,1000.73
2022-12-03T00:50:44.855Z,1000.73
2022-12-03T00:50:55.120Z,1000.73
2022-12-03T00:51:05.345Z,1000.72
2022-12-03T00:51:15.586Z,1000.72
2022-12-03T00:51:25.835Z,1000.72
2022-12-03T00:51:36.088Z,1000.73
2022-12-03T00:51:46.332Z,1000.73
2022-12-03T00:51:56.627Z,1000.73
2022-12-03T00:52:06.853Z,1000.72
2022-12-03T00:52:17.097Z,1000.72
2022-12-03T00:52:27.341Z,1000.73
2022-12-03T00:52:37.649Z,1000.72
2022-12-03T00:52:47.854Z,1000.72
2022-12-03T00:52:58.125Z,1000.72
2022-12-03T00:53:08.347Z,1000.72
2022-12-03T00:53:18.585Z,1000.71
2022-12-03T00:53:28.834Z,1000.70
2022-12-03T00:53:39.074Z,1000.71
2022-12-03T00:53:49.319Z,1000.70
2022-12-03T00:53:59.568Z,1000.70
2022-12-03T00:54:09.822Z,1000.70
2022-12-03T00:54:20.056Z,1000.70
2022-12-03T00:54:32.262Z,1000.70
2022-12-03T00:54:40.728Z,1000.70
2022-12-03T00:54:51.276Z,1000.70
2022-12-03T00:55:01.167Z,1000.69
2022-12-03T00:55:11.421Z,1000.69
2022-12-03T00:55:21.669Z,1000.70
2022-12-03T00:55:31.912Z,1000.70
2022-12-03T00:55:42.171Z,1000.70
2022-12-03T00:55:52.404Z,1000.69
2022-12-03T00:56:02.651Z,1000.70
2022-12-03T00:56:12.893Z,1000.69
2022-12-03T00:56:23.151Z,1000.68
2022-12-03T00:56:33.383Z,1000.68
2022-12-03T00:56:43.627Z,1000.69
2022-12-03T00:56:53.877Z,1000.69
2022-12-03T00:57:04.119Z,1000.69
2022-12-03T00:57:14.361Z,1000.70
2022-12-03T00:57:24.626Z,1000.70
2022-12-03T00:57:34.850Z,1000.70
2022-12-03T00:57:45.113Z,1000.71
2022-12-03T00:57:55.361Z,1000.71
2022-12-03T00:58:05.642Z,1000.71
2022-12-03T00:58:15.868Z,1000.70
2022-12-03T00:58:26.112Z,1000.70
2022-12-03T00:58:36.365Z,1000.70
2022-12-03T00:58:46.599Z,1000.70
2022-12-03T00:58:56.837Z,1000.70
2022-12-03T00:59:07.080Z,1000.71
2022-12-03T00:59:17.339Z,1000.71
2022-12-03T00:59:27.577Z,1000.71
2022-12-03T00:59:37.815Z,1000.71
2022-12-03T00:59:48.061Z,1000.72
2022-12-03T00:59:58.306Z,1000.72
2022-12-03T01:00:08.557Z,1000.72
2022-12-03T01:00:18.819Z,1000.72
2022-12-03T01:00:29.052Z,1000.72
2022-12-03T01:00:39.296Z,1000.72
2022-12-03T01:00:49.570Z,1000.72
2022-12-03T01:00:59.793Z,1000.72
2022-12-03T01:01:10.034Z,1000.72
2022-12-03T01:01:20.323Z,1000.73
2022-12-03T01:01:30.569Z,1000.73
2022-12-03T01:01:40.894Z,1000.74
2022-12-03T01:01:51.150Z,1000.73
2022-12-03T01:02:01.488Z,1000.73
2022-12-03T01:02:11.763Z,1000.74
2022-12-03T01:02:22.175Z,1000.74
2022-12-03T01:02:32.410Z,1000.74
2022-12-03T01:02:42.671Z,1000.74
2022-12-03T01:02:52.939Z,1000.74
2022-12-03T01:03:03.188Z,1000.74
2022-12-03T01:03:13.471Z,1000.74
2022-12-03T01:03:23.678Z,1000.74
2022-12-03T01:03:33.928Z,1000.74
2022-12-03T01:03:44.189Z,1000.74
2022-12-03T01:03:54.438Z,1000.74
2022-12-03T01:04:04.662Z,1000.74
2022-12-03T01:04:14.947Z,1000.75
2022-12-03T01:04:25.224Z,1000.74
2022-12-03T01:04:35.492Z,1000.74
2022-12-03T01:04:45.806Z,1000.74
2022-12-03T01:04:56.574Z,1000.74
2022-12-03T01:05:06.395Z,1000.74
2022-12-03T01:05:16.754Z,1000.73
2022-12-03T01:05:27.010Z,1000.73
2022-12-03T01:05:37.271Z,1000.73
2022-12-03T01:05:47.493Z,1000.72
2022-12-03T01:05:57.735Z,1000.72
2022-12-03T01:06:07.982Z,1000.73
2022-12-03T01:06:18.224Z,1000.72
2022-12-03T01:06:28.470Z,1000.72
2022-12-03T01:06:38.713Z,1000.72
2022-12-03T01:06:48.956Z,1000.72
2022-12-03T01:06:59.202Z,1000.71
2022-12-03T01:07:09.445Z,1000.72
2022-12-03T01:07:19.691Z,1000.72
2022-12-03T01:07:29.976Z,1000.72
2022-12-03T01:07:40.257Z,1000.72
2022-12-03T01:07:50.554Z,1000.72
2022-12-03T01:08:00.805Z,1000.72
2022-12-03T01:08:11.119Z,1000.71
2022-12-03T01:08:21.361Z,1000.72
2022-12-03T01:08:31.601Z,1000.72
2022-12-03T01:08:41.884Z,1000.72
2022-12-03T01:08:52.103Z,1000.72
2022-12-03T01:09:02.352Z,1000.71
2022-12-03T01:09:12.614Z,1000.71
2022-12-03T01:09:22.846Z,1000.72
2022-12-03T01:09:33.089Z,1000.72
2022-12-03T01:09:43.323Z,1000.72
2022-12-03T01:09:53.580Z,1000.72
2022-12-03T01:10:03.829Z,1000.72
2022-12-03T01:10:14.082Z,1000.72
2022-12-03T01:10:24.321Z,1000.72
2022-12-03T01:10:34.573Z,1000.72
2022-12-03T01:10:44.809Z,1000.72
2022-12-03T01:10:55.118Z,1000.72
2022-12-03T01:11:05.330Z,1000.72
2022-12-03T01:11:15.600Z,1000.72
2022-12-03T01:11:25.831Z,1000.73
2022-12-03T01:11:36.086Z,1000.72
2022-12-03T01:11:46.317Z,1000.73
2022-12-03T01:11:56.562Z,1000.73
2022-12-03T01:12:06.811Z,1000.73
2022-12-03T01:12:17.051Z,1000.73
2022-12-03T01:12:27.299Z,1000.73
2022-12-03T01:12:37.545Z,1000.73
2022-12-03T01:12:47.802Z,1000.73
2022-12-03T01:12:58.062Z,1000.73
2022-12-03T01:13:08.301Z,1000.73
2022-12-03T01:13:18.546Z,1000.73
2022-12-03T01:13:28.833Z,1000.74
2022-12-03T01:13:39.063Z,1000.74
2022-12-03T01:13:49.300Z,1000.74
2022-12-03T01:13:59.543Z,1000.74
2022-12-03T01:14:09.792Z,1000.74
2022-12-03T01:14:20.033Z,1000.75
2022-12-03T01:14:30.272Z,1000.74
2022-12-03T01:14:40.527Z,1000.75
2022-12-03T01:14:51.125Z,1000.75
2022-12-03T01:15:01.110Z,1000.75
2022-12-03T01:15:11.391Z,1000.75
2022-12-03T01:15:21.640Z,1000.75
2022-12-03T01:15:31.877Z,1000.75
2022-12-03T01:15:42.235Z,1000.76
2022-12-03T01:15:52.518Z,1000.76
2022-12-03T01:16:02.834Z,1000.76
2022-12-03T01:16:13.215Z,1000.76
2022-12-03T01:16:23.548Z,1000.76
2022-12-03T01:16:33.849Z,1000.76
2022-12-03T01:16:44.125Z,1000.76
2022-12-03T01:16:54.339Z,1000.75
2022-12-03T01:17:04.581Z,1000.75
2022-12-03T01:17:14.820Z,1000.76
2022-12-03T01:17:25.061Z,1000.76
2022-12-03T01:17:35.312Z,1000.76
2022-12-03T01:17:45.569Z,1000.76
2022-12-03T01:17:55.821Z,1000.76
2022-12-03T01:18:06.063Z,1000.75
2022-12-03T01:18:16.301Z,1000.75
2022-12-03T01:18:26.563Z,1000.75
2022-12-03T01:18:36.822Z,1000.75
2022-12-03T01:18:47.065Z,1000.75
2022-12-03T01:18:57.308Z,1000.75
2022-12-03T01:19:07.563Z,1000.75
2022-12-03T01:19:17.804Z,1000.75
2022-12-03T01:19:28.045Z,1000.75
2022-12-03T01:19:41.227Z,1000.75
2022-12-03T01:19:49.710Z,1000.75
2022-12-03T01:19:59.133Z,1000.75
2022-12-03T01:20:09.357Z,1000.75
2022-12-03T01:20:19.647Z,1000.75
2022-12-03T01:20:29.873Z,1000.75
2022-12-03T01:20:40.119Z,1000.74
2022-12-03T01:20:50.365Z,1000.75
2022-12-03T01:21:00.607Z,1000.76
2022-12-03T01:21:10.853Z,1000.75
2022-12-03T01:21:21.102Z,1000.75
2022-12-03T01:21:31.361Z,1000.75
2022-12-03T01:21:41.589Z,1000.75
2022-12-03T01:21:51.833Z,1000.75
2022-12-03T01:22:02.077Z,1000.75
2022-12-03T01:22:12.318Z,1000.75
2022-12-03T01:22:22.562Z,1000.75
2022-12-03T01:22:32.805Z,1000.75
2022-12-03T01:22:43.062Z,1000.75
2022-12-03T01:22:53.310Z,1000.75
2022-12-03T01:23:03.549Z,1000.75
2022-12-03T01:23:13.786Z,1000.76
2022-12-03T01:23:24.105Z,1000.75
2022-12-03T01:23:34.303Z,1000.76
2022-12-03T01:23:44.552Z,1000.76
2022-12-03T01:23:54.830Z,1000.76
2022-12-03T01:24:05.080Z,1000.76
2022-12-03T01:24:15.306Z,1000.76
2022-12-03T01:24:25.551Z,1000.76
2022-12-03T01:24:35.795Z,1000.76
2022-12-03T01:24:46.042Z,1000.76
2022-12-03T01:24:56.295Z,1000.77
2022-12-03T01:25:06.543Z,1000.77
2022-12-03T01:25:16.795Z,1000.78
2022-12-03T01:25:27.037Z,1000.78
2022-12-03T01:25:37.285Z,1000.78
2022-12-03T01:25:47.537Z,1000.78
2022-12-03T01:25:57.779Z,1000.78
2022-12-03T01:26:08.058Z,1000.78
2022-12-03T01:26:18.272Z,1000.79
2022-12-03T01:26:28.522Z,1000.78
2022-12-03T01:26:38.764Z,1000.79
2022-12-03T01:26:49.016Z,1000.79
2022-12-03T01:26:59.252Z,1000.79
2022-12-03T01:27:09.497Z,1000.79
2022-12-03T01:27:19.752Z,1000.80
2022-12-03T01:27:29.996Z,1000.80
2022-12-03T01:27:40.237Z,1000.80
2022-12-03T01:27:50.489Z,1000.80
2022-12-03T01:28:00.725Z,1000.80
2022-12-03T01:28:10.972Z,1000.81
2022-12-03T01:28:21.219Z,1000.81
2022-12-03T01:28:31.443Z,1000.81
2022-12-03T01:28:41.687Z,1000.81
2022-12-03T01:28:52.118Z,1000.80
2022-12-03T01:29:02.381Z,1000.81
2022-12-03T01:29:12.632Z,1000.81
2022-12-03T01:29:22.869Z,1000.81
2022-12-03T01:29:33.121Z,1000.81
2022-12-03T01:29:43.357Z,1000.80
2022-12-03T01:29:53.603Z,1000.81
2022-12-03T01:30:03.845Z,1000.81
2022-12-03T01:30:14.093Z,1000.81
2022-12-03T01:30:24.357Z,1000.81
2022-12-03T01:30:34.593Z,1000.81
2022-12-03T01:30:44.840Z,1000.81
2022-12-03T01:30:55.164Z,1000.81
2022-12-03T01:31:05.453Z,1000.81
2022-12-03T01:31:15.712Z,1000.80
2022-12-03T01:31:26.023Z,1000.81
2022-12-03T01:31:36.314Z,1000.81
2022-12-03T01:31:46.616Z,1000.80
2022-12-03T01:31:56.901Z,1000.80
2022-12-03T01:32:07.109Z,1000.80
2022-12-03T01:32:17.408Z,1000.81
2022-12-03T01:32:27.636Z,1000.81
2022-12-03T01:32:37.869Z,1000.81
2022-12-03T01:32:48.112Z,1000.81
2022-12-03T01:32:58.368Z,1000.80
2022-12-03T01:33:08.607Z,1000.80
2022-12-03T01:33:18.866Z,1000.80
2022-12-03T01:33:29.102Z,1000.81
2022-12-03T01:33:39.364Z,1000.81
2022-12-03T01:33:49.598Z,1000.81
2022-12-03T01:33:59.935Z,1000.82
2022-12-03T01:34:10.135Z,1000.82
2022-12-03T01:34:20.378Z,1000.82
2022-12-03T01:34:30.620Z,1000.81
2022-12-03T01:34:40.868Z,1000.82
2022-12-03T01:34:51.519Z,1000.81
2022-12-03T01:35:01.328Z,1000.82
2022-12-03T01:35:11.575Z,1000.82
2022-12-03T01:35:21.835Z,1000.82
2022-12-03T01:35:32.097Z,1000.81
2022-12-03T01:35:42.336Z,1000.81
2022-12-03T01:35:52.573Z,1000.81
2022-12-03T01:36:02.812Z,1000.82
2022-12-03T01:36:13.060Z,1000.82
2022-12-03T01:36:23.294Z,1000.81
2022-12-03T01:36:33.534Z,1000.81
2022-12-03T01:36:43.791Z,1000.81
2022-12-03T01:36:54.023Z,1000.81
2022-12-03T01:37:04.267Z,1000.81
2022-12-03T01:37:14.515Z,1000.81
2022-12-03T01:37:24.759Z,1000.81
2022-12-03T01:37:34.999Z,1000.81
2022-12-03T01:37:45.290Z,1000.81
2022-12-03T01:37:55.509Z,1000.81
2022-12-03T01:38:05.759Z,1000.80
2022-12-03T01:38:16.007Z,1000.80
2022-12-03T01:38:26.246Z,1000.80
2022-12-03T01:38:36.514Z,1000.80
2022-12-03T01:38:46.734Z,1000.80
2022-12-03T01:38:56.979Z,1000.80
2022-12-03T01:39:07.238Z,1000.81
2022-12-03T01:39:17.467Z,1000.80
2022-12-03T01:39:27.718Z,1000.80
2022-12-03T01:39:37.955Z,1000.79
2022-12-03T01:39:48.205Z,1000.79
2022-12-03T01:39:58.445Z,1000.78
2022-12-03T01:40:08.709Z,1000.79
2022-12-03T01:40:18.954Z,1000.79
2022-12-03T01:40:29.230Z,1000.79
2022-12-03T01:40:39.456Z,1000.80
2022-12-03T01:40:49.698Z,1000.80
2022-12-03T01:40:59.943Z,1000.78
2022-12-03T01:41:12.005Z,1000.78
2022-12-03T01:41:20.401Z,1000.78
2022-12-03T01:41:30.647Z,1000.79
2022-12-03T01:41:40.890Z,1000.79
2022-12-03T01:41:51.144Z,1000.79
2022-12-03T01:42:01.377Z,1000.79
2022-12-03T01:42:11.696Z,1000.80
2022-12-03T01:42:21.897Z,1000.80
2022-12-03T01:42:32.140Z,1000.79
2022-12-03T01:42:42.432Z,1000.79
2022-12-03T01:42:52.654Z,1000.79
2022-12-03T01:43:02.889Z,1000.79
2022-12-03T01:43:13.134Z,1000.79
2022-12-03T01:43:23.390Z,1000.79
2022-12-03T01:43:33.630Z,1000.79
2022-12-03T01:43:43.891Z,1000.79
2022-12-03T01:43:54.122Z,1000.79
2022-12-03T01:44:04.381Z,1000.79
2022-12-03T01:44:14.613Z,1000.79
2022-12-03T01:44:24.854Z,1000.79
2022-12-03T01:44:35.101Z,1000.79
2022-12-03T01:44:45.343Z,1000.79
2022-12-03T01:44:55.807Z,1000.79
2022-12-03T01:45:05.900Z,1000.79
2022-12-03T01:45:16.150Z,1000.79
2022-12-03T01:45:26.436Z,1000.79
2022-12-03T01:45:36.688Z,1000.79
2022-12-03T01:45:46.956Z,1000.80
2022-12-03T01:45:57.174Z,1000.80
2022-12-03T01:46:07.468Z,1000.80
2022-12-03T01:46:17.761Z,1000.80
2022-12-03T01:46:28.063Z,1000.79
2022-12-03T01:46:38.339Z,1000.79
2022-12-03T01:46:48.644Z,1000.80
2022-12-03T01:46:58.968Z,1000.80
2022-12-03T01:47:09.280Z,1000.79
2022-12-03T01:47:19.506Z,1000.80
2022-12-03T01:47:29.740Z,1000.80
2022-12-03T01:47:39.973Z,1000.80
2022-12-03T01:47:50.215Z,1000.79
2022-12-03T01:48:00.460Z,1000.79
2022-12-03T01:48:10.703Z,1000.79
2022-12-03T01:48:20.951Z,1000.78
2022-12-03T01:48:31.245Z,1000.79
2022-12-03T01:48:41.451Z,1000.78
2022-12-03T01:48:51.689Z,1000.78
2022-12-03T01:49:01.935Z,1000.78
2022-12-03T01:49:12.180Z,1000.78
2022-12-03T01:49:22.429Z,1000.78
2022-12-03T01:49:32.667Z,1000.78
2022-12-03T01:49:42.922Z,1000.78
2022-12-03T01:49:53.160Z,1000.78
2022-12-03T01:50:03.422Z,1000.78
2022-12-03T01:50:13.651Z,1000.78
2022-12-03T01:50:23.891Z,1000.77
2022-12-03T01:50:34.176Z,1000.77
2022-12-03T01:50:44.388Z,1000.78
2022-12-03T01:50:54.633Z,1000.78
2022-12-03T01:51:04.878Z,1000.77
2022-12-03T01:51:15.154Z,1000.77
2022-12-03T01:51:25.384Z,1000.76
2022-12-03T01:51:35.629Z,1000.76
2022-12-03T01:51:45.879Z,1000.76
2022-12-03T01:51:56.134Z,1000.76
2022-12-03T01:52:06.369Z,1000.75
2022-12-03T01:52:16.616Z,1000.75
2022-12-03T01:52:26.857Z,1000.75
2022-12-03T01:52:37.098Z,1000.74
2022-12-03T01:52:47.351Z,1000.74
2022-12-03T01:52:57.594Z,1000.75
2022-12-03T01:53:07.834Z,1000.74
2022-12-03T01:53:18.076Z,1000.74
2022-12-03T01:53:28.319Z,1000.74
2022-12-03T01:53:38.562Z,1000.74
2022-12-03T01:53:48.810Z,1000.74
2022-12-03T01:53:59.056Z,1000.74
2022-12-03T01:54:09.293Z,1000.74
2022-12-03T01:54:19.558Z,1000.74
2022-12-03T01:54:29.798Z,1000.74
2022-12-03T01:54:40.044Z,1000.73
2022-12-03T01:54:50.443Z,1000.73
2022-12-03T01:55:00.596Z,1000.73
2022-12-03T01:55:10.844Z,1000.73
2022-12-03T01:55:21.085Z,1000.73
2022-12-03T01:55:31.350Z,1000.73
2022-12-03T01:55:44.503Z,1000.73
2022-12-03T01:55:53.015Z,1000.72
2022-12-03T01:56:02.434Z,1000.72
2022-12-03T01:56:12.641Z,1000.72
2022-12-03T01:56:22.883Z,1000.72
2022-12-03T01:56:33.132Z,1000.71
2022-12-03T01:56:43.379Z,1000.72
2022-12-03T01:56:53.617Z,1000.72
2022-12-03T01:57:03.867Z,1000.71
2022-12-03T01:57:14.125Z,1000.72
2022-12-03T01:57:24.378Z,1000.71
2022-12-03T01:57:34.628Z,1000.71
2022-12-03T01:57:44.874Z,1000.70
2022-12-03T01:57:55.120Z,1000.71
2022-12-03T01:58:05.410Z,1000.70
2022-12-03T01:58:15.632Z,1000.70
2022-12-03T01:58:25.881Z,1000.70
2022-12-03T01:58:36.112Z,1000.70
2022-12-03T01:58:46.355Z,1000.70
2022-12-03T01:58:56.597Z,1000.70
2022-12-03T01:59:06.844Z,1000.70
2022-12-03T01:59:17.089Z,1000.70
2022-12-03T01:59:27.333Z,1000.70
2022-12-03T01:59:37.581Z,1000.70
2022-12-03T01:59:47.827Z,1000.70
2022-12-03T01:59:58.100Z,1000.70
2022-12-03T02:00:08.317Z,1000.69
2022-12-03T02:00:18.562Z,1000.69
2022-12-03T02:00:28.806Z,1000.68
2022-12-03T02:00:39.069Z,1000.69
2022-12-03T02:00:49.307Z,1000.69
2022-12-03T02:00:59.558Z,1000.69
2022-12-03T02:01:09.814Z,1000.69
2022-12-03T02:01:20.142Z,1000.69
2022-12-03T02:01:30.460Z,1000.70
2022-12-03T02:01:40.776Z,1000.69
2022-12-03T02:01:51.077Z,1000.69
2022-12-03T02:02:01.314Z,1000.69
2022-12-03T02:02:11.600Z,1000.69
2022-12-03T02:02:21.858Z,1000.69
2022-12-03T02:02:32.103Z,1000.69
2022-12-03T02:02:42.344Z,1000.69
2022-12-03T02:02:52.589Z,1000.69
2022-12-03T02:03:02.876Z,1000.69
2022-12-03T02:03:13.092Z,1000.69
2022-12-03T02:03:23.334Z,1000.69
2022-12-03T02:03:33.649Z,1000.69
2022-12-03T02:03:43.977Z,1000.69
2022-12-03T02:03:54.316Z,1000.69
2022-12-03T02:04:04.623Z,1000.69